^^
Meteo Knjazevac Station Historical Data
Daily Summary for May 30, 2021 Units:  English    Metric   Both
Daily Weekly Monthly Yearly Custom
  High: Low: Average:
Temperature: 98.6 °F 65.3 °F 81.5 °F
Dew Point: 75.2 °F 63.3 °F 68.6 °F
Humidity: 94% 37% 69%
Wind Speed: 6mph 0mph 1.5mph
Wind Gust: 10mph - -
Wind- - SSW
Pressure: 30.00 in 29.88 in -
Precipitation: 0.00 in    
Historical Graphs
 
 
Tabular Data for May 30, 2021
Time Temperature Dew Point Pressure Wind Wind Speed Wind Gust Humidity Rainfall Rate (Hourly) solar Conditions
00:00 72 °F 65.8 °F 29.98 in WSW 1 mph 2 mph 81% 0.00 in 0 W/m2
00:10 71.3 °F 65.9 °F 29.98 in Calm   2 mph 83% 0.00 in 0 W/m2
00:20 70.9 °F 65.5 °F 29.99 in Calm   2 mph 83% 0.00 in 0 W/m2
00:30 70.5 °F 65.4 °F 29.99 in Calm   1 mph 84% 0.00 in 0 W/m2
00:40 70.2 °F 65.1 °F 29.98 in Calm   2 mph 84% 0.00 in 0 W/m2
00:50 70.2 °F 65.1 °F 29.98 in WNW 1 mph 2 mph 84% 0.00 in 0 W/m2
01:00 70 °F 64.9 °F 29.99 in NW 1 mph 2 mph 84% 0.00 in 0 W/m2
01:10 69.6 °F 64.9 °F 29.99 in West 1 mph 3 mph 85% 0.00 in 0 W/m2
01:20 69.3 °F 64.6 °F 29.99 in Calm   2 mph 85% 0.00 in 0 W/m2
01:30 69.1 °F 64.7 °F 29.99 in Calm   2 mph 86% 0.00 in 0 W/m2
01:40 68.9 °F 64.5 °F 29.99 in Calm   2 mph 86% 0.00 in 0 W/m2
01:50 68.5 °F 64.8 °F 29.99 in WSW 1 mph 2 mph 88% 0.00 in 0 W/m2
02:00 68.4 °F 64.7 °F 29.99 in Calm   2 mph 88% 0.00 in 0 W/m2
02:10 68.4 °F 64.7 °F 29.99 in Calm   1 mph 88% 0.00 in 0 W/m2
02:20 68.2 °F 64.5 °F 29.99 in Calm   2 mph 88% 0.00 in 0 W/m2
02:30 68 °F 64.6 °F 29.99 in Calm   2 mph 89% 0.00 in 0 W/m2
02:40 67.8 °F 64.5 °F 29.99 in Calm   1 mph 89% 0.00 in 0 W/m2
02:50 67.8 °F 64.5 °F 29.99 in Calm   1 mph 89% 0.00 in 0 W/m2
03:00 67.6 °F 64.3 °F 29.99 in Calm   2 mph 89% 0.00 in 0 W/m2
03:10 67.5 °F 64.1 °F 29.99 in Calm   2 mph 89% 0.00 in 0 W/m2
03:20 67.3 °F 64.2 °F 29.99 in Calm   2 mph 90% 0.00 in 0 W/m2
03:30 66.9 °F 63.9 °F 29.99 in West 1 mph 2 mph 90% 0.00 in 0 W/m2
03:40 66.6 °F 63.5 °F 29.99 in Calm   2 mph 90% 0.00 in 0 W/m2
03:50 66.4 °F 63.7 °F 29.99 in NW 1 mph 2 mph 91% 0.00 in 0 W/m2
04:00 66.2 °F 63.5 °F 29.99 in Calm   2 mph 91% 0.00 in 0 W/m2
04:10 66.2 °F 63.5 °F 29.99 in Calm   4 mph 91% 0.00 in 0 W/m2
04:20 66.2 °F 63.5 °F 29.99 in Calm   2 mph 91% 0.00 in 0 W/m2
04:30 66 °F 63.3 °F 29.99 in Calm   2 mph 91% 0.00 in 0 W/m2
04:40 66 °F 63.9 °F 29.99 in Calm   2 mph 93% 0.00 in 0 W/m2
04:50 65.8 °F 63.8 °F 29.99 in Calm   2 mph 93% 0.00 in 0 W/m2
05:00 66 °F 63.9 °F 29.99 in Calm   2 mph 93% 0.00 in 0 W/m2
05:10 65.7 °F 63.6 °F 29.99 in Calm   2 mph 93% 0.00 in 0 W/m2
05:20 65.7 °F 63.6 °F 29.99 in North 1 mph 4 mph 93% 0.00 in 4 W/m2
05:30 65.7 °F 63.6 °F 30.00 in NW 1 mph 2 mph 93% 0.00 in 9 W/m2
05:40 65.5 °F 63.7 °F 30.00 in Calm   2 mph 94% 0.00 in 17 W/m2
05:50 65.5 °F 63.7 °F 30.00 in WSW 1 mph 2 mph 94% 0.00 in 28 W/m2
06:00 65.3 °F 63.5 °F 30.00 in NW 1 mph 2 mph 94% 0.00 in 39 W/m2
06:10 65.5 °F 63.7 °F 30.00 in Calm   3 mph 94% 0.00 in 52 W/m2
06:20 65.8 °F 64 °F 30.00 in NNE 1 mph 4 mph 94% 0.00 in 62 W/m2
06:30 66 °F 64.2 °F 30.00 in Calm   2 mph 94% 0.00 in 75 W/m2
06:40 66.4 °F 64.6 °F 30.00 in Calm   2 mph 94% 0.00 in 119 W/m2
06:50 66.7 °F 64.9 °F 30.00 in Calm   2 mph 94% 0.00 in 145 W/m2
07:00 67.1 °F 65 °F 30.00 in NW 1 mph 3 mph 93% 0.00 in 172 W/m2
07:10 67.5 °F 65.4 °F 30.00 in Calm   2 mph 93% 0.00 in 203 W/m2
07:20 68 °F 66.2 °F 30.00 in WNW 1 mph 2 mph 94% 0.00 in 234 W/m2
07:30 68.5 °F 66.4 °F 30.00 in Calm   3 mph 93% 0.00 in 268 W/m2
07:40 69.2 °F 66.5 °F 30.00 in Calm   3 mph 91% 0.00 in 303 W/m2
07:50 70.2 °F 66.8 °F 30.00 in ESE 1 mph 4 mph 89% 0.00 in 337 W/m2
08:00 71.2 °F 66.5 °F 30.00 in SSE 1 mph 6 mph 85% 0.00 in 371 W/m2
08:10 72.1 °F 67 °F 30.00 in Calm   4 mph 84% 0.00 in 409 W/m2
08:20 72.9 °F 66.7 °F 30.00 in ESE 3 mph 5 mph 81% 0.00 in 443 W/m2
08:30 74.1 °F 67.5 °F 30.00 in ESE 1 mph 6 mph 80% 0.00 in 479 W/m2
08:40 75.2 °F 67.9 °F 30.00 in ESE 2 mph 7 mph 78% 0.00 in 513 W/m2
08:50 76.3 °F 68.5 °F 30.00 in SE 2 mph 5 mph 77% 0.00 in 544 W/m2
09:00 77.7 °F 69.9 °F 30.00 in SSE 1 mph 4 mph 77% 0.00 in 576 W/m2
09:10 79.9 °F 70.4 °F 30.00 in SE 3 mph 6 mph 73% 0.00 in 608 W/m2
09:20 81.5 °F 71.6 °F 29.99 in ESE 1 mph 8 mph 72% 0.00 in 639 W/m2
09:30 82.8 °F 72 °F 29.99 in SE 2 mph 7 mph 70% 0.00 in 668 W/m2
09:40 84 °F 72.7 °F 30.00 in SE 2 mph 7 mph 69% 0.00 in 697 W/m2
09:50 85.1 °F 73.3 °F 29.99 in East 2 mph 7 mph 68% 0.00 in 723 W/m2
10:00 86.2 °F 73.9 °F 29.99 in ESE 2 mph 6 mph 67% 0.00 in 748 W/m2
10:10 86.9 °F 75.1 °F 29.99 in East 2 mph 7 mph 68% 0.00 in 777 W/m2
10:20 87.8 °F 74.6 °F 29.99 in ESE 3 mph 7 mph 65% 0.00 in 797 W/m2
10:30 88.5 °F 75.2 °F 29.99 in East 3 mph 7 mph 65% 0.00 in 816 W/m2
10:40 89.2 °F 75 °F 29.99 in ESE 3 mph 7 mph 63% 0.00 in 834 W/m2
10:50 89.8 °F 75 °F 29.98 in ENE 2 mph 7 mph 62% 0.00 in 255 W/m2
11:00 90.3 °F 74.5 °F 29.98 in ESE 3 mph 9 mph 60% 0.00 in 869 W/m2
11:10 90.7 °F 73.9 °F 29.97 in South 2 mph 6 mph 58% 0.00 in 882 W/m2
11:20 91.2 °F 73.9 °F 29.97 in South 2 mph 5 mph 57% 0.00 in 863 W/m2
11:30 91.8 °F 73.3 °F 29.97 in SSW 3 mph 6 mph 55% 0.00 in 906 W/m2
11:40 92.1 °F 73.1 °F 29.97 in SSW 2 mph 6 mph 54% 0.00 in 915 W/m2
11:50 92.3 °F 73.3 °F 29.97 in SW 2 mph 6 mph 54% 0.00 in 923 W/m2
12:00 93 °F 74.5 °F 29.96 in SSW 2 mph 5 mph 55% 0.00 in 929 W/m2
12:10 93 °F 73.9 °F 29.96 in SSW 5 mph 8 mph 54% 0.00 in 933 W/m2
12:20 93.6 °F 74.4 °F 29.96 in SSW 3 mph 9 mph 54% 0.00 in 936 W/m2
12:30 94.1 °F 74.9 °F 29.95 in East 2 mph 6 mph 54% 0.00 in 938 W/m2
12:40 94.3 °F 75.1 °F 29.95 in South 2 mph 6 mph 54% 0.00 in 938 W/m2
12:50 94.5 °F 74.7 °F 29.95 in South 3 mph 7 mph 53% 0.00 in 936 W/m2
13:00 94.6 °F 74.3 °F 29.94 in SE 1 mph 6 mph 52% 0.00 in 933 W/m2
13:10 94.8 °F 75 °F 29.94 in SSE 2 mph 8 mph 53% 0.00 in 929 W/m2
13:20 95 °F 75.2 °F 29.93 in SSE 3 mph 6 mph 53% 0.00 in 922 W/m2
13:30 95.2 °F 74.8 °F 29.93 in SSW 2 mph 6 mph 52% 0.00 in 915 W/m2
13:40 95.4 °F 73.2 °F 29.93 in WSW 3 mph 6 mph 49% 0.00 in 906 W/m2
13:50 95.5 °F 72.1 °F 29.93 in SW 3 mph 8 mph 47% 0.00 in 895 W/m2
14:00 95.7 °F 72.3 °F 29.93 in SW 1 mph 8 mph 47% 0.00 in 883 W/m2
14:10 96.3 °F 71.5 °F 29.92 in SSW 3 mph 7 mph 45% 0.00 in 869 W/m2
14:20 96.6 °F 71.8 °F 29.92 in SSW 3 mph 7 mph 45% 0.00 in 854 W/m2
14:30 96.8 °F 69.9 °F 29.92 in SSW 6 mph 8 mph 42% 0.00 in 838 W/m2
14:40 97 °F 67.9 °F 29.91 in SSW 3 mph 7 mph 39% 0.00 in 820 W/m2
14:50 97.3 °F 69 °F 29.91 in South 2 mph 9 mph 40% 0.00 in 801 W/m2
15:00 97.3 °F 66.7 °F 29.91 in South 3 mph 10 mph 37% 0.00 in 781 W/m2
15:10 97.5 °F 66.9 °F 29.91 in South 3 mph 8 mph 37% 0.00 in 760 W/m2
15:20 97.7 °F 67.8 °F 29.90 in SSW 2 mph 6 mph 38% 0.00 in 737 W/m2
15:30 97.9 °F 68 °F 29.90 in South 2 mph 7 mph 38% 0.00 in 714 W/m2
15:40 98.2 °F 68.3 °F 29.89 in South 2 mph 7 mph 38% 0.00 in 689 W/m2
15:50 98.2 °F 68.3 °F 29.89 in South 3 mph 7 mph 38% 0.00 in 659 W/m2
16:00 98.1 °F 68.1 °F 29.89 in South 5 mph 7 mph 38% 0.00 in 637 W/m2
16:10 98.3 °F 69.1 °F 29.89 in South 2 mph 6 mph 39% 0.00 in 607 W/m2
16:20 98 °F 68.1 °F 29.89 in SSE 2 mph 7 mph 38% 0.00 in 572 W/m2
16:30 98.4 °F 69.2 °F 29.89 in SW 3 mph 6 mph 39% 0.00 in 545 W/m2
16:40 98.6 °F 70.1 °F 29.89 in SW 2 mph 6 mph 40% 0.00 in 511 W/m2
16:50 98.6 °F 69.4 °F 29.89 in WSW 2 mph 6 mph 39% 0.00 in 476 W/m2
17:00 98.2 °F 69 °F 29.89 in WNW 3 mph 7 mph 39% 0.00 in 442 W/m2
17:10 98.2 °F 68.3 °F 29.88 in WNW 5 mph 7 mph 38% 0.00 in 406 W/m2
17:20 97.7 °F 67 °F 29.88 in WNW 5 mph 9 mph 37% 0.00 in 373 W/m2
17:30 97.5 °F 68.4 °F 29.88 in WNW 5 mph 8 mph 39% 0.00 in 337 W/m2
17:40 97.3 °F 69 °F 29.88 in WNW 2 mph 6 mph 40% 0.00 in 302 W/m2
17:50 97.2 °F 68.8 °F 29.88 in West 3 mph 7 mph 40% 0.00 in 268 W/m2
18:00 96.8 °F 69.9 °F 29.88 in West 2 mph 7 mph 42% 0.00 in 238 W/m2
18:10 96.4 °F 70.3 °F 29.88 in West 2 mph 5 mph 43% 0.00 in 207 W/m2
18:20 96.3 °F 70.1 °F 29.88 in WSW 2 mph 5 mph 43% 0.00 in 180 W/m2
18:30 95.9 °F 71.1 °F 29.88 in WSW 2 mph 4 mph 45% 0.00 in 153 W/m2
18:40 95.2 °F 72.4 °F 29.88 in WSW 2 mph 4 mph 48% 0.00 in 122 W/m2
18:50 94.6 °F 71.9 °F 29.88 in West 2 mph 5 mph 48% 0.00 in 97 W/m2
19:00 93.7 °F 74 °F 29.88 in SW 2 mph 4 mph 53% 0.00 in 75 W/m2
19:10 92.1 °F 73.6 °F 29.89 in South 1 mph 4 mph 55% 0.00 in 56 W/m2
19:20 90.9 °F 74 °F 29.89 in SSW 2 mph 3 mph 58% 0.00 in 40 W/m2
19:30 89.6 °F 73.3 °F 29.89 in SSW 3 mph 5 mph 59% 0.00 in 26 W/m2
19:40 88.3 °F 72.7 °F 29.89 in Calm   3 mph 60% 0.00 in 16 W/m2
19:50 87.4 °F 72.8 °F 29.89 in South 1 mph 3 mph 62% 0.00 in 8 W/m2
20:00 86.2 °F 72.1 °F 29.90 in SW 1 mph 3 mph 63% 0.00 in 0 W/m2
20:10 85.2 °F 71.7 °F 29.90 in SSW 1 mph 4 mph 64% 0.00 in 0 W/m2
20:20 84.4 °F 70.8 °F 29.90 in Calm   3 mph 64% 0.00 in 0 W/m2
20:30 83.6 °F 70.6 °F 29.91 in SW 1 mph 3 mph 65% 0.00 in 0 W/m2
20:40 82.6 °F 69.6 °F 29.91 in SSW 2 mph 4 mph 65% 0.00 in 0 W/m2
20:50 81.6 °F 69.6 °F 29.91 in SSW 2 mph 4 mph 67% 0.00 in 0 W/m2
21:00 80.9 °F 68.9 °F 29.92 in SW 1 mph 4 mph 67% 0.00 in 0 W/m2
21:10 80.2 °F 69.1 °F 29.92 in SW 2 mph 3 mph 69% 0.00 in 0 W/m2
21:20 79.8 °F 70.8 °F 29.92 in WSW 2 mph 3 mph 74% 0.00 in 0 W/m2
21:30 79.2 °F 70.2 °F 29.92 in West 1 mph 3 mph 74% 0.00 in 0 W/m2
21:40 78.6 °F 69.6 °F 29.93 in SW 1 mph 2 mph 74% 0.00 in 0 W/m2
21:50 77.9 °F 69.3 °F 29.92 in SW 2 mph 3 mph 75% 0.00 in 0 W/m2
22:00 77.2 °F 68.6 °F 29.93 in WSW 2 mph 3 mph 75% 0.00 in 0 W/m2
22:10 76.8 °F 68.3 °F 29.93 in WSW 2 mph 4 mph 75% 0.00 in 0 W/m2
22:20 76.3 °F 68.5 °F 29.93 in WSW 2 mph 3 mph 77% 0.00 in 0 W/m2
22:30 75.9 °F 68.2 °F 29.93 in WSW 1 mph 4 mph 77% 0.00 in 0 W/m2
22:40 75.5 °F 67.8 °F 29.93 in WSW 1 mph 2 mph 77% 0.00 in 0 W/m2
22:50 75 °F 67.3 °F 29.93 in WNW 1 mph 2 mph 77% 0.00 in 0 W/m2
23:00 74.8 °F 67.1 °F 29.93 in Calm   2 mph 77% 0.00 in 0 W/m2
23:10 74.7 °F 67 °F 29.93 in Calm   2 mph 77% 0.00 in 0 W/m2
23:20 74.1 °F 66.8 °F 29.93 in WSW 1 mph 2 mph 78% 0.00 in 0 W/m2
23:30 73.8 °F 66.8 °F 29.93 in Calm   2 mph 79% 0.00 in 0 W/m2
23:40 73.4 °F 66.5 °F 29.93 in WNW 1 mph 2 mph 79% 0.00 in 0 W/m2
23:50 73.2 °F 66.3 °F 29.93 in WSW 1 mph 2 mph 79% 0.00 in 0 W/m2
Knjazevac, Serbia
Compliments of Weather Underground - 2 mb